Time;durP1;ratioP1;P1;durP2;ratioP2;P2;SDS_P1;SDS_P2;PMS_P1;PMS_P2;Temp;Humidity;BMP_temperature;BMP_pressure;BME280_temperature;BME280_humidity;BME280_pressure;Samples;Min_cycle;Max_cycle;Signal;HPM_P1;HPM_P2
2023/01/28 00:01:49;;;;;;;12.10;3.58;;;;;;;0.49;100.00;102431.84;5077021;28;20032;-57
2023/01/28 00:04:15;;;;;;;8.32;2.67;;;;;;;0.49;100.00;102434.44;5079729;28;20067;-54
2023/01/28 00:06:41;;;;;;;16.05;5.38;;;;;;;0.53;100.00;102433.34;5084532;28;20024;-52
2023/01/28 00:09:07;;;;;;;18.27;6.93;;;;;;;0.56;100.00;102435.78;5085517;28;20027;-54
2023/01/28 00:11:32;;;;;;;15.65;5.18;;;;;;;0.56;100.00;102441.00;5075886;28;20026;-54
2023/01/28 00:13:58;;;;;;;7.63;3.72;;;;;;;0.60;100.00;102439.94;5079676;28;20020;-56
2023/01/28 00:16:25;;;;;;;11.13;3.70;;;;;;;0.67;100.00;102442.22;5078967;28;20020;-55
2023/01/28 00:18:51;;;;;;;6.00;3.25;;;;;;;0.69;100.00;102443.00;5075847;28;20028;-56
2023/01/28 00:21:17;;;;;;;10.00;4.40;;;;;;;0.73;100.00;102441.94;5081095;28;20032;-56
2023/01/28 00:23:47;;;;;;;7.07;3.28;;;;;;;0.75;100.00;102440.94;5093682;28;20428;-56
2023/01/28 00:26:14;;;;;;;8.02;4.03;;;;;;;0.80;100.00;102443.28;5069530;28;20115;-56
2023/01/28 00:28:40;;;;;;;2.70;1.92;;;;;;;0.85;100.00;102438.66;5089580;28;20063;-53
2023/01/28 00:31:08;;;;;;;5.10;2.92;;;;;;;0.84;100.00;102431.78;5076179;28;20046;-55
2023/01/28 00:33:34;;;;;;;9.32;3.75;;;;;;;0.89;100.00;102432.38;5079984;28;20036;-55
2023/01/28 00:36:00;;;;;;;8.18;3.20;;;;;;;0.89;100.00;102432.38;5076383;28;20130;-55
2023/01/28 00:38:26;;;;;;;13.50;4.47;;;;;;;0.96;100.00;102427.69;5090135;28;20038;-55
2023/01/28 00:40:52;;;;;;;15.60;8.13;;;;;;;1.01;100.00;102417.84;5083329;28;20031;-54
2023/01/28 00:43:17;;;;;;;13.43;4.28;;;;;;;0.91;100.00;102414.84;5090190;28;20135;-55
2023/01/28 00:45:43;;;;;;;7.72;2.97;;;;;;;0.93;100.00;102415.63;5091828;28;20049;-57
2023/01/28 00:48:08;;;;;;;10.60;3.05;;;;;;;0.98;100.00;102413.63;5091892;28;20443;-57
2023/01/28 00:50:34;;;;;;;7.82;4.60;;;;;;;0.91;100.00;102417.47;5082238;28;20074;-54
2023/01/28 00:52:59;;;;;;;13.80;5.78;;;;;;;0.92;100.00;102421.75;5085245;28;20028;-57
2023/01/28 00:55:25;;;;;;;9.52;4.55;;;;;;;0.85;100.00;102417.78;5076846;28;20039;-53
2023/01/28 00:57:50;;;;;;;5.88;3.08;;;;;;;0.85;100.00;102428.22;5083290;28;20255;-54
2023/01/28 01:00:19;;;;;;;4.45;2.00;;;;;;;0.86;100.00;102420.31;5081032;28;20032;-53
2023/01/28 01:02:44;;;;;;;4.78;3.20;;;;;;;0.89;100.00;102434.97;5077173;28;20021;-52
2023/01/28 01:05:09;;;;;;;5.20;2.65;;;;;;;0.85;100.00;102433.44;5081368;28;20091;-52
2023/01/28 01:07:40;;;;;;;2.47;2.25;;;;;;;0.92;100.00;102437.44;5080309;28;20031;-51
2023/01/28 01:10:09;;;;;;;9.23;3.63;;;;;;;0.97;100.00;102438.03;5082387;28;20032;-54
2023/01/28 01:12:34;;;;;;;7.40;2.72;;;;;;;0.96;100.00;102438.13;5080838;28;20427;-56
2023/01/28 01:15:00;;;;;;;8.00;2.85;;;;;;;0.95;100.00;102447.72;5085736;28;20036;-56
2023/01/28 01:17:29;;;;;;;10.68;2.78;;;;;;;0.93;100.00;102457.41;5087176;28;20034;-55
2023/01/28 01:19:54;;;;;;;3.13;2.17;;;;;;;0.92;100.00;102445.25;5082973;28;20067;-50
2023/01/28 01:22:19;;;;;;;14.45;4.78;;;;;;;0.93;100.00;102446.97;5079724;28;20047;-54
2023/01/28 01:24:46;;;;;;;11.27;3.85;;;;;;;0.96;100.00;102444.19;5077774;28;20085;-54
2023/01/28 01:27:12;;;;;;;9.75;4.88;;;;;;;1.03;100.00;102442.97;5077187;28;21791;-57
2023/01/28 01:29:38;;;;;;;10.73;5.63;;;;;;;1.04;100.00;102436.78;5082187;28;20078;-57
2023/01/28 01:32:03;;;;;;;10.05;4.90;;;;;;;1.17;100.00;102438.75;5076412;28;20076;-55
2023/01/28 01:34:29;;;;;;;10.93;2.95;;;;;;;1.26;100.00;102427.78;5099014;28;20031;-55
2023/01/28 01:36:54;;;;;;;4.35;1.85;;;;;;;1.24;100.00;102427.03;5089263;28;20381;-55
2023/01/28 01:39:19;;;;;;;9.95;2.85;;;;;;;1.20;100.00;102420.31;5088690;28;20377;-54
2023/01/28 01:41:45;;;;;;;5.80;2.17;;;;;;;1.13;100.00;102424.16;5082892;28;20129;-57
2023/01/28 01:44:58;;;;;;;6.75;3.08;;;;;;;1.19;100.00;102423.81;5089027;28;20035;-54
2023/01/28 01:47:42;;;;;;;5.57;2.42;;;;;;;1.23;100.00;102420.97;5079502;28;20342;-57
2023/01/28 01:50:15;;;;;;;6.60;2.05;;;;;;;1.19;100.00;102424.69;5087298;28;20025;-53
2023/01/28 01:52:42;;;;;;;7.95;2.63;;;;;;;1.21;100.00;102422.81;5083822;28;20024;-53
2023/01/28 01:55:13;;;;;;;7.32;2.15;;;;;;;1.18;100.00;102422.97;5081540;28;20509;-54
2023/01/28 01:57:39;;;;;;;6.30;2.83;;;;;;;1.17;100.00;102425.69;5081579;28;20689;-57
2023/01/28 02:00:06;;;;;;;12.90;3.22;;;;;;;1.17;100.00;102423.09;5087962;28;20031;-54
2023/01/28 02:02:40;;;;;;;6.80;1.85;;;;;;;1.18;100.00;102425.59;5086755;28;20222;-54
2023/01/28 02:05:08;;;;;;;4.97;2.30;;;;;;;1.21;100.00;102427.19;5091534;28;20039;-56
2023/01/28 02:07:33;;;;;;;9.00;4.45;;;;;;;1.20;100.00;102425.53;5084687;28;20034;-54
2023/01/28 02:09:58;;;;;;;4.82;1.65;;;;;;;1.20;100.00;102426.38;5075406;28;20103;-55
2023/01/28 02:12:31;;;;;;;10.85;2.13;;;;;;;1.20;100.00;102422.91;5087613;28;20028;-56
2023/01/28 02:15:01;;;;;;;3.75;1.90;;;;;;;1.31;100.00;102425.78;5087848;28;20047;-56
2023/01/28 02:17:27;;;;;;;6.20;1.90;;;;;;;1.35;100.00;102424.69;5086502;28;20032;-54
2023/01/28 02:19:54;;;;;;;3.97;1.92;;;;;;;1.31;100.00;102433.63;5080874;28;20039;-54
2023/01/28 02:22:49;;;;;;;6.90;2.10;;;;;;;1.30;100.00;102431.94;5087927;28;20036;-56
2023/01/28 02:25:31;;;;;;;11.10;3.70;;;;;;;1.30;100.00;102435.41;5080320;28;21435;-53
2023/01/28 02:28:15;;;;;;;21.58;3.33;;;;;;;1.36;100.00;102430.75;5086125;28;20488;-56
2023/01/28 02:31:13;;;;;;;2.95;1.42;;;;;;;1.39;100.00;102436.66;5084341;28;20451;-53
2023/01/28 02:33:45;;;;;;;4.45;2.10;;;;;;;1.31;100.00;102431.00;5085175;28;20039;-55
2023/01/28 02:36:39;;;;;;;3.55;1.35;;;;;;;1.35;100.00;102435.16;5074757;28;20060;-53
2023/01/28 02:39:14;;;;;;;10.07;2.85;;;;;;;1.34;100.00;102438.69;5091475;28;20107;-54
2023/01/28 02:41:49;;;;;;;5.88;2.28;;;;;;;1.35;100.00;102443.00;5080778;28;20050;-56
2023/01/28 02:44:14;;;;;;;2.92;1.65;;;;;;;1.34;100.00;102437.84;5082272;28;20047;-53
2023/01/28 02:49:30;;;;;;;5.30;2.10;;;;;;;1.34;100.00;102450.91;5084310;28;20047;-55
2023/01/28 02:52:08;;;;;;;4.38;2.17;;;;;;;1.39;100.00;102446.28;5093880;28;20032;-53
2023/01/28 02:54:55;;;;;;;5.85;1.67;;;;;;;1.42;100.00;102457.44;5079896;28;20132;-56
2023/01/28 02:57:35;;;;;;;4.00;2.15;;;;;;;1.46;100.00;102456.31;5077509;28;20385;-54
2023/01/28 03:00:12;;;;;;;4.15;2.55;;;;;;;1.43;100.00;102464.34;5086362;28;20024;-52
2023/01/28 03:03:06;;;;;;;3.50;1.48;;;;;;;1.50;100.00;102457.84;5085475;28;20031;-51
2023/01/28 03:05:36;;;;;;;2.47;1.40;;;;;;;1.49;100.00;102463.97;5085660;28;20033;-56
2023/01/28 03:09:21;;;;;;;2.13;1.23;;;;;;;1.52;100.00;102458.63;5089642;28;20024;-55
2023/01/28 03:38:54;;;;;;;1.35;1.00;;;;;;;1.68;100.00;102474.31;5079506;28;20466;-51
2023/01/28 03:41:22;;;;;;;4.00;2.00;;;;;;;1.77;100.00;102466.88;5087626;28;20035;-56
2023/01/28 03:43:48;;;;;;;3.03;1.00;;;;;;;1.72;100.00;102475.81;5081628;28;20470;-57
2023/01/28 03:46:14;;;;;;;3.85;1.42;;;;;;;1.74;100.00;102462.66;5085407;28;20035;-57
2023/01/28 03:48:39;;;;;;;4.35;1.33;;;;;;;1.79;100.00;102457.19;5085745;28;20028;-51
2023/01/28 03:51:05;;;;;;;3.85;1.10;;;;;;;1.80;100.00;102454.44;5075510;28;20048;-53
2023/01/28 03:53:30;;;;;;;2.58;1.23;;;;;;;1.72;100.00;102459.28;5090411;28;20481;-55
2023/01/28 03:55:55;;;;;;;5.90;1.77;;;;;;;1.72;100.00;102456.66;5085326;28;20039;-55
2023/01/28 03:58:25;;;;;;;3.33;0.98;;;;;;;1.79;100.00;102444.94;5073339;28;20028;-56
2023/01/28 04:00:52;;;;;;;1.20;1.10;;;;;;;1.82;100.00;102455.22;5075786;28;20021;-57
2023/01/28 04:03:19;;;;;;;2.80;1.65;;;;;;;1.81;100.00;102457.91;5087114;28;20021;-55
2023/01/28 04:06:00;;;;;;;1.30;0.60;;;;;;;1.83;100.00;102456.91;5082802;28;20031;-57
2023/01/28 04:08:26;;;;;;;3.88;0.73;;;;;;;1.82;100.00;102457.84;5080124;28;20111;-57
2023/01/28 04:10:51;;;;;;;3.50;1.00;;;;;;;1.78;100.00;102445.84;5082420;28;20120;-52
2023/01/28 04:13:17;;;;;;;1.00;0.70;;;;;;;1.83;100.00;102453.44;5090224;28;20035;-57
2023/01/28 04:15:43;;;;;;;2.45;1.33;;;;;;;1.80;100.00;102453.63;5080497;28;20020;-52
2023/01/28 04:18:08;;;;;;;4.18;1.30;;;;;;;1.85;100.00;102449.81;5085771;28;20032;-55
2023/01/28 04:20:35;;;;;;;2.78;0.43;;;;;;;1.91;100.00;102444.25;5083450;28;20050;-54
2023/01/28 04:23:00;;;;;;;2.85;0.70;;;;;;;1.88;100.00;102433.09;5090190;28;20437;-55
2023/01/28 04:25:26;;;;;;;3.15;0.90;;;;;;;1.92;100.00;102426.78;5078986;28;20127;-55
2023/01/28 04:27:51;;;;;;;1.70;0.70;;;;;;;1.92;100.00;102427.63;5093101;28;20032;-54
2023/01/28 04:30:17;;;;;;;2.20;1.48;;;;;;;1.92;100.00;102435.47;5084837;28;20028;-55
2023/01/28 04:32:42;;;;;;;3.30;1.05;;;;;;;1.84;100.00;102431.59;5078841;28;20066;-56
2023/01/28 04:35:08;;;;;;;2.47;0.68;;;;;;;1.91;100.00;102428.56;5084300;28;20042;-57
2023/01/28 04:37:33;;;;;;;4.78;1.52;;;;;;;1.92;100.00;102430.22;5079889;28;20422;-55
2023/01/28 04:39:58;;;;;;;6.90;1.08;;;;;;;1.82;100.00;102436.06;5085936;28;20024;-54
2023/01/28 04:42:24;;;;;;;6.22;1.67;;;;;;;1.77;100.00;102433.72;5083327;28;20041;-55
2023/01/28 04:44:49;;;;;;;1.05;0.82;;;;;;;1.69;100.00;102428.06;5086307;28;20034;-55
2023/01/28 04:47:14;;;;;;;5.28;0.60;;;;;;;1.71;100.00;102432.28;5091340;28;20023;-54
2023/01/28 04:49:40;;;;;;;2.15;0.65;;;;;;;1.65;100.00;102423.91;5076520;28;20550;-53
2023/01/28 04:52:05;;;;;;;1.58;0.75;;;;;;;1.52;100.00;102431.59;5086629;28;20088;-53
2023/01/28 04:54:30;;;;;;;3.25;0.50;;;;;;;1.43;100.00;102438.19;5076998;28;20028;-57
2023/01/28 04:56:56;;;;;;;2.58;0.68;;;;;;;1.45;100.00;102428.50;5077688;28;20055;-52
2023/01/28 04:59:22;;;;;;;1.33;0.40;;;;;;;1.45;100.00;102431.13;5082997;28;20051;-57
2023/01/28 05:01:48;;;;;;;1.02;0.35;;;;;;;1.50;100.00;102442.16;5081767;28;20434;-54
2023/01/28 05:04:15;;;;;;;0.75;0.55;;;;;;;1.51;100.00;102443.00;5088491;28;20035;-53
2023/01/28 05:06:40;;;;;;;2.55;0.35;;;;;;;1.46;100.00;102440.63;5083909;28;20030;-54
2023/01/28 05:09:05;;;;;;;1.27;0.50;;;;;;;1.47;100.00;102433.63;5074026;28;20393;-53
2023/01/28 05:11:31;;;;;;;0.63;0.63;;;;;;;1.46;100.00;102437.19;5086234;28;20415;-53
2023/01/28 05:13:56;;;;;;;2.28;0.75;;;;;;;1.46;100.00;102445.03;5085620;28;20380;-54
2023/01/28 05:16:21;;;;;;;1.02;0.30;;;;;;;1.45;100.00;102448.56;5091769;28;20067;-52
2023/01/28 05:18:47;;;;;;;1.98;0.80;;;;;;;1.49;100.00;102439.63;5088366;28;20089;-54
2023/01/28 05:21:13;;;;;;;0.10;0.10;;;;;;;1.47;100.00;102429.25;5087981;28;20086;-52
2023/01/28 05:23:38;;;;;;;1.40;0.50;;;;;;;1.49;100.00;102431.78;5095976;28;20056;-52
2023/01/28 05:26:04;;;;;;;3.90;0.75;;;;;;;1.51;100.00;102440.38;5078553;28;20029;-56
2023/01/28 05:28:29;;;;;;;5.22;1.00;;;;;;;1.49;100.00;102448.28;5094886;28;20044;-54
2023/01/28 05:30:54;;;;;;;0.70;0.70;;;;;;;1.46;100.00;102442.41;5084601;28;20035;-52
2023/01/28 05:33:20;;;;;;;0.68;0.32;;;;;;;1.45;100.00;102446.78;5084462;28;20036;-51
2023/01/28 05:35:45;;;;;;;4.47;2.28;;;;;;;1.43;100.00;102453.88;5086133;28;20456;-56
2023/01/28 05:38:10;;;;;;;5.35;1.42;;;;;;;1.41;100.00;102447.03;5087221;28;20028;-52
2023/01/28 05:40:35;;;;;;;0.65;0.20;;;;;;;1.43;100.00;102448.66;5087512;28;20047;-54
2023/01/28 05:43:01;;;;;;;3.95;0.95;;;;;;;1.41;100.00;102453.09;5084360;28;20032;-54
2023/01/28 05:45:26;;;;;;;2.50;0.65;;;;;;;1.38;100.00;102445.44;5088320;28;20469;-50
2023/01/28 05:47:52;;;;;;;0.70;0.43;;;;;;;1.44;100.00;102450.31;5087216;28;20538;-54
2023/01/28 05:50:17;;;;;;;1.73;0.77;;;;;;;1.45;100.00;102459.88;5089337;28;20052;-50
2023/01/28 05:52:43;;;;;;;1.02;0.32;;;;;;;1.52;100.00;102447.28;5074940;28;20505;-52
2023/01/28 05:55:09;;;;;;;4.53;1.25;;;;;;;1.54;100.00;102458.50;5079596;28;20116;-56
2023/01/28 05:57:35;;;;;;;4.10;0.10;;;;;;;1.51;100.00;102456.91;5076291;28;20491;-55
2023/01/28 06:00:00;;;;;;;1.55;0.63;;;;;;;1.54;100.00;102455.91;5082410;28;20035;-54
2023/01/28 06:02:25;;;;;;;0.50;0.50;;;;;;;1.62;100.00;102458.09;5074892;28;20133;-50
2023/01/28 06:04:51;;;;;;;1.70;0.40;;;;;;;1.62;100.00;102463.31;5097920;28;20028;-53
2023/01/28 06:07:19;;;;;;;1.42;0.63;;;;;;;1.63;100.00;102460.63;5090600;28;20024;-54
2023/01/28 06:09:45;;;;;;;1.70;0.47;;;;;;;1.40;100.00;102454.03;5080739;28;20027;-54
2023/01/28 06:12:10;;;;;;;1.27;0.40;;;;;;;1.34;100.00;102470.03;5091641;28;20035;-52
2023/01/28 06:14:35;;;;;;;0.55;0.28;;;;;;;1.38;100.00;102471.56;5089139;28;20353;-53
2023/01/28 06:17:01;;;;;;;1.02;0.70;;;;;;;1.40;100.00;102466.28;5086843;28;20385;-54
2023/01/28 06:19:26;;;;;;;3.92;0.60;;;;;;;1.38;100.00;102455.91;5075499;28;20033;-55
2023/01/28 06:21:51;;;;;;;2.60;0.40;;;;;;;1.28;100.00;102463.38;5084043;28;20036;-54
2023/01/28 06:24:16;;;;;;;1.20;0.50;;;;;;;1.21;100.00;102469.84;5084817;28;20036;-56
2023/01/28 06:26:42;;;;;;;1.58;0.70;;;;;;;1.21;100.00;102474.22;5088342;28;20032;-52
2023/01/28 06:29:08;;;;;;;3.15;1.15;;;;;;;1.24;100.00;102466.22;5090360;28;20051;-52
2023/01/28 06:31:33;;;;;;;0.60;0.52;;;;;;;1.36;100.00;102468.19;5088868;28;20473;-56
2023/01/28 06:33:58;;;;;;;1.08;0.52;;;;;;;1.37;100.00;102464.66;5089376;28;20027;-55
2023/01/28 06:36:24;;;;;;;1.85;0.75;;;;;;;1.24;100.00;102468.84;5079262;28;20040;-53
2023/01/28 06:38:49;;;;;;;1.38;0.50;;;;;;;1.29;100.00;102477.28;5089800;28;20028;-53
2023/01/28 06:41:14;;;;;;;6.03;0.77;;;;;;;1.32;100.00;102464.06;5088361;28;20032;-54
2023/01/28 06:43:40;;;;;;;3.25;1.23;;;;;;;1.33;100.00;102470.97;5085175;28;20056;-54
2023/01/28 06:46:05;;;;;;;2.50;0.47;;;;;;;1.31;100.00;102472.81;5092166;28;20055;-55
2023/01/28 06:48:31;;;;;;;2.83;0.57;;;;;;;1.32;100.00;102482.38;5080906;28;20029;-51
2023/01/28 06:50:56;;;;;;;2.80;1.05;;;;;;;1.34;100.00;102482.28;5091574;28;20097;-51
2023/01/28 06:53:21;;;;;;;1.30;1.08;;;;;;;1.38;100.00;102471.56;5084194;28;20500;-56
2023/01/28 06:55:47;;;;;;;1.60;0.45;;;;;;;1.37;100.00;102469.03;5086647;28;20058;-52
2023/01/28 06:58:12;;;;;;;1.02;0.45;;;;;;;1.40;100.00;102469.72;5084999;28;20057;-55
2023/01/28 07:00:37;;;;;;;1.42;0.70;;;;;;;1.39;100.00;102473.25;5088827;28;20036;-56
2023/01/28 07:03:03;;;;;;;0.73;0.60;;;;;;;1.41;100.00;102481.84;5080074;28;20031;-54
2023/01/28 07:05:29;;;;;;;1.95;0.75;;;;;;;1.45;100.00;102498.25;5084773;28;20039;-52
2023/01/28 07:07:54;;;;;;;0.43;0.40;;;;;;;1.43;100.00;102489.63;5093479;28;20454;-55
2023/01/28 07:10:19;;;;;;;2.33;1.17;;;;;;;1.45;100.00;102487.78;5086643;28;20393;-54
2023/01/28 07:12:45;;;;;;;2.72;0.50;;;;;;;1.46;100.00;102479.84;5086389;28;20389;-53
2023/01/28 07:15:10;;;;;;;1.65;0.95;;;;;;;1.41;100.00;102487.09;5077022;28;20450;-53
2023/01/28 07:17:40;;;;;;;2.75;0.77;;;;;;;1.41;100.00;102486.25;5076723;28;20038;-52
2023/01/28 07:20:09;;;;;;;0.90;0.40;;;;;;;1.42;100.00;102493.16;5082445;28;20393;-55
2023/01/28 07:22:35;;;;;;;1.20;1.17;;;;;;;1.22;100.00;102494.22;5077992;28;20583;-56
2023/01/28 07:25:00;;;;;;;1.45;1.27;;;;;;;0.96;100.00;102490.38;5084382;28;20063;-55
2023/01/28 07:27:26;;;;;;;1.95;0.43;;;;;;;0.93;100.00;102501.81;5074993;28;20031;-55
2023/01/28 07:29:51;;;;;;;0.38;0.28;;;;;;;0.90;100.00;102501.13;5074501;28;20107;-52
2023/01/28 07:32:17;;;;;;;2.63;1.00;;;;;;;0.95;100.00;102494.72;5079622;28;20043;-53
2023/01/28 07:34:42;;;;;;;1.27;0.82;;;;;;;1.14;100.00;102501.63;5082702;28;20034;-56
2023/01/28 07:37:08;;;;;;;1.60;0.50;;;;;;;1.13;100.00;102505.16;5085677;28;20111;-57
2023/01/28 07:39:33;;;;;;;1.75;0.52;;;;;;;1.05;100.00;102506.41;5080906;28;20028;-55
2023/01/28 07:41:59;;;;;;;1.83;0.50;;;;;;;1.03;100.00;102510.00;5080474;28;20496;-54
2023/01/28 07:44:25;;;;;;;1.25;0.88;;;;;;;0.98;100.00;102510.28;5080167;28;20488;-54
2023/01/28 07:46:50;;;;;;;2.97;1.13;;;;;;;0.96;100.00;102503.44;5080411;28;20031;-55
2023/01/28 07:49:15;;;;;;;5.32;2.53;;;;;;;0.84;100.00;102512.72;5070617;28;20059;-54
2023/01/28 07:51:41;;;;;;;1.95;0.73;;;;;;;0.77;100.00;102506.13;5073800;28;20060;-50
2023/01/28 07:54:07;;;;;;;1.38;1.13;;;;;;;0.76;100.00;102501.84;5077680;28;20063;-57
2023/01/28 07:56:33;;;;;;;1.08;0.57;;;;;;;0.85;100.00;102501.34;5079310;28;20032;-51
2023/01/28 07:58:58;;;;;;;1.60;0.50;;;;;;;0.89;100.00;102508.13;5071658;28;20031;-52
2023/01/28 08:01:23;;;;;;;0.85;0.38;;;;;;;0.92;100.00;102513.19;5072346;28;20027;-53
2023/01/28 08:03:49;;;;;;;1.05;0.35;;;;;;;0.89;100.00;102505.50;5074050;28;20032;-54
2023/01/28 08:06:14;;;;;;;3.20;1.00;;;;;;;0.93;100.00;102499.22;5079092;28;20399;-57
2023/01/28 08:08:39;;;;;;;1.70;0.80;;;;;;;0.93;100.00;102501.81;5081025;28;20035;-56
2023/01/28 08:11:10;;;;;;;2.58;0.57;;;;;;;0.92;100.00;102504.50;5079335;28;20032;-54
2023/01/28 08:13:35;;;;;;;2.65;1.52;;;;;;;0.86;100.00;102510.91;5084385;28;20461;-54
2023/01/28 08:16:01;;;;;;;4.15;1.00;;;;;;;0.85;100.00;102517.03;5086130;28;20059;-54
2023/01/28 08:18:26;;;;;;;2.17;0.93;;;;;;;0.82;100.00;102517.19;5085963;28;20449;-56
2023/01/28 08:20:56;;;;;;;1.25;0.80;;;;;;;0.84;100.00;102517.94;5079651;28;20032;-55
2023/01/28 08:23:22;;;;;;;2.10;1.88;;;;;;;0.87;100.00;102520.41;5080469;28;20032;-53
2023/01/28 08:25:47;;;;;;;3.08;0.65;;;;;;;0.90;100.00;102519.41;5079487;28;20362;-54
2023/01/28 08:28:14;;;;;;;3.10;2.30;;;;;;;0.97;100.00;102524.25;5078551;28;20032;-56
2023/01/28 08:30:40;;;;;;;3.42;0.98;;;;;;;1.00;100.00;102524.06;5080051;28;20059;-56
2023/01/28 08:33:07;;;;;;;1.55;0.75;;;;;;;1.01;100.00;102522.34;5081189;28;20385;-53
2023/01/28 08:35:33;;;;;;;0.90;0.50;;;;;;;1.12;100.00;102524.38;5086005;28;20030;-56
2023/01/28 08:38:00;;;;;;;1.45;1.33;;;;;;;1.25;100.00;102520.19;5082522;28;20024;-53
2023/01/28 08:40:26;;;;;;;4.22;1.25;;;;;;;1.29;100.00;102521.72;5083225;28;20556;-54
2023/01/28 08:42:53;;;;;;;3.65;1.10;;;;;;;1.31;100.00;102525.94;5080991;28;20135;-53
2023/01/28 08:45:24;;;;;;;2.55;1.30;;;;;;;1.30;100.00;102529.50;5083516;28;20086;-52
2023/01/28 08:48:00;;;;;;;1.35;1.25;;;;;;;1.31;100.00;102523.31;5091862;28;20027;-53
2023/01/28 08:50:28;;;;;;;2.30;0.68;;;;;;;1.31;100.00;102532.94;5069730;28;20044;-52
2023/01/28 08:52:58;;;;;;;2.90;1.10;;;;;;;1.34;100.00;102537.16;5080854;28;20546;-50
2023/01/28 08:55:25;;;;;;;1.58;0.55;;;;;;;1.37;100.00;102540.47;5093809;28;20059;-53
2023/01/28 08:57:51;;;;;;;0.85;0.68;;;;;;;1.45;100.00;102542.69;5082073;28;20024;-53
2023/01/28 09:00:17;;;;;;;1.85;1.00;;;;;;;1.52;100.00;102544.03;5089618;28;20486;-55
2023/01/28 09:02:42;;;;;;;0.68;0.43;;;;;;;1.53;100.00;102548.34;5086265;28;20040;-55
2023/01/28 09:05:09;;;;;;;4.45;1.00;;;;;;;1.51;100.00;102550.19;5087643;28;20064;-51
2023/01/28 09:07:35;;;;;;;3.05;0.65;;;;;;;1.51;100.00;102556.25;5096362;28;20028;-55
2023/01/28 09:10:00;;;;;;;1.20;1.00;;;;;;;1.55;100.00;102561.31;5082422;28;20028;-55
2023/01/28 09:12:26;;;;;;;1.02;0.88;;;;;;;1.64;100.00;102564.31;5086342;28;20077;-51
2023/01/28 09:14:52;;;;;;;1.45;0.88;;;;;;;1.68;100.00;102563.22;5086410;28;20094;-55
2023/01/28 09:17:18;;;;;;;2.53;1.13;;;;;;;1.72;100.00;102562.09;5086663;28;20032;-54
2023/01/28 09:19:43;;;;;;;2.33;0.98;;;;;;;1.77;100.00;102561.88;5081578;28;20044;-55
2023/01/28 09:22:10;;;;;;;3.75;1.23;;;;;;;1.82;100.00;102562.47;5085267;28;20033;-55
2023/01/28 09:24:35;;;;;;;1.40;1.00;;;;;;;1.88;100.00;102564.75;5086186;28;20164;-55
2023/01/28 09:27:00;;;;;;;5.72;1.05;;;;;;;1.94;100.00;102564.44;5076996;28;20497;-53
2023/01/28 09:29:26;;;;;;;2.50;1.15;;;;;;;2.01;100.00;102564.06;5078511;28;20086;-53
2023/01/28 09:31:51;;;;;;;2.95;1.55;;;;;;;2.11;100.00;102565.25;5076647;28;20013;-53
2023/01/28 09:34:16;;;;;;;2.15;0.95;;;;;;;2.19;100.00;102568.28;5081593;28;20028;-52
2023/01/28 09:36:42;;;;;;;4.47;1.20;;;;;;;2.29;100.00;102566.00;5081438;28;20333;-54
2023/01/28 09:39:07;;;;;;;1.65;0.88;;;;;;;2.38;100.00;102555.88;5074710;28;20029;-53
2023/01/28 09:41:54;;;;;;;1.63;1.05;;;;;;;2.46;100.00;102546.75;5077189;28;20397;-53
2023/01/28 09:44:19;;;;;;;4.30;1.88;;;;;;;2.50;100.00;102548.22;5070422;28;20520;-56
2023/01/28 09:46:45;;;;;;;3.70;1.48;;;;;;;2.57;100.00;102546.97;5075441;28;20024;-51
2023/01/28 09:49:35;;;;;;;2.35;1.33;;;;;;;2.68;100.00;102544.56;5077297;28;20098;-52
2023/01/28 09:52:01;;;;;;;12.18;3.28;;;;;;;2.69;100.00;102545.41;5075208;28;20048;-54
2023/01/28 09:54:43;;;;;;;5.57;2.67;;;;;;;2.76;100.00;102536.25;5081511;28;20054;-52
2023/01/28 09:57:29;;;;;;;7.82;2.83;;;;;;;2.80;100.00;102538.59;5075046;28;20040;-53
2023/01/28 09:59:56;;;;;;;4.78;3.00;;;;;;;2.88;100.00;102542.56;5080968;28;20388;-51
2023/01/28 10:02:43;;;;;;;3.70;2.55;;;;;;;2.97;100.00;102542.00;5079772;28;20480;-50
2023/01/28 10:05:39;;;;;;;6.75;3.15;;;;;;;3.10;100.00;102547.34;5085034;28;20047;-54
2023/01/28 10:08:25;;;;;;;2.78;1.77;;;;;;;3.19;100.00;102538.94;5083690;28;20032;-51
2023/01/28 10:10:54;;;;;;;5.05;2.47;;;;;;;3.37;100.00;102532.59;5083198;28;20131;-52
2023/01/28 10:13:38;;;;;;;12.00;4.25;;;;;;;3.49;100.00;102525.75;5082350;28;20032;-53
2023/01/28 10:16:26;;;;;;;4.45;2.50;;;;;;;3.60;100.00;102531.16;5084863;28;20631;-53
2023/01/28 10:19:09;;;;;;;5.93;3.55;;;;;;;3.80;100.00;102518.59;5085469;28;20135;-50
2023/01/28 10:21:42;;;;;;;4.43;3.22;;;;;;;3.94;100.00;102511.50;5077127;28;20042;-51
2023/01/28 10:24:24;;;;;;;9.77;3.45;;;;;;;4.08;100.00;102502.75;5079235;28;20035;-52
2023/01/28 10:26:50;;;;;;;14.85;3.13;;;;;;;4.13;100.00;102505.94;5081715;28;20392;-50
2023/01/28 10:29:22;;;;;;;6.70;3.47;;;;;;;4.23;100.00;102515.81;5080400;28;20047;-52
2023/01/28 10:32:01;;;;;;;10.07;4.28;;;;;;;4.30;100.00;102509.25;5074911;28;20059;-52
2023/01/28 10:34:27;;;;;;;5.25;3.70;;;;;;;4.38;100.00;102499.91;5083676;28;20024;-50
2023/01/28 10:36:53;;;;;;;9.18;4.60;;;;;;;4.45;100.00;102489.84;5068529;28;20031;-52
2023/01/28 10:39:21;;;;;;;10.88;5.80;;;;;;;4.54;100.00;102480.50;5072002;28;20028;-55
2023/01/28 10:41:46;;;;;;;10.45;4.05;;;;;;;4.62;100.00;102469.47;5075645;28;20537;-55
2023/01/28 10:44:17;;;;;;;13.95;7.45;;;;;;;4.73;100.00;102464.34;5082396;28;20075;-53
2023/01/28 10:46:45;;;;;;;9.15;4.90;;;;;;;4.76;100.00;102458.88;5076942;28;20119;-52
2023/01/28 10:49:26;;;;;;;12.95;4.80;;;;;;;4.88;100.00;102450.16;5080729;28;20479;-53
2023/01/28 10:51:51;;;;;;;8.05;4.25;;;;;;;4.93;100.00;102441.94;5076028;28;20040;-53
2023/01/28 10:54:22;;;;;;;8.95;4.25;;;;;;;5.00;100.00;102435.31;5078487;28;20051;-51
2023/01/28 10:56:52;;;;;;;4.18;3.33;;;;;;;5.03;100.00;102443.84;5084254;28;20037;-53
2023/01/28 10:59:28;;;;;;;6.72;3.88;;;;;;;5.14;100.00;102431.75;5085375;28;20516;-51
2023/01/28 11:02:02;;;;;;;6.07;4.13;;;;;;;5.23;100.00;102423.19;5087865;28;20293;-51
2023/01/28 11:04:30;;;;;;;9.98;5.25;;;;;;;5.38;100.00;102431.78;5081753;28;20016;-53
2023/01/28 11:07:15;;;;;;;8.68;4.72;;;;;;;5.51;100.00;102427.31;5083227;28;20087;-54
2023/01/28 11:09:45;;;;;;;9.07;5.78;;;;;;;5.66;100.00;102426.22;5087225;28;20372;-52
2023/01/28 11:12:16;;;;;;;7.85;5.32;;;;;;;5.72;100.00;102419.66;5085336;28;21102;-52
2023/01/28 11:14:53;;;;;;;13.77;4.95;;;;;;;5.76;100.00;102415.03;5083047;28;20024;-55
2023/01/28 11:17:23;;;;;;;9.02;5.30;;;;;;;5.82;100.00;102420.66;5085316;28;20028;-54
2023/01/28 11:19:51;;;;;;;9.95;5.95;;;;;;;5.90;100.00;102413.03;5078583;28;20063;-55
2023/01/28 11:22:30;;;;;;;9.25;4.63;;;;;;;5.99;100.00;102410.69;5082606;28;20068;-51
2023/01/28 11:24:55;;;;;;;5.13;3.53;;;;;;;6.14;100.00;102401.66;5082439;28;20033;-52
2023/01/28 11:27:28;;;;;;;7.45;3.78;;;;;;;6.21;100.00;102409.97;5083304;28;20027;-52
2023/01/28 11:29:56;;;;;;;7.25;4.20;;;;;;;6.25;100.00;102406.97;5084107;28;20032;-56
2023/01/28 11:32:25;;;;;;;5.97;3.25;;;;;;;6.35;100.00;102415.03;5083289;28;20492;-51
2023/01/28 11:34:53;;;;;;;6.25;3.85;;;;;;;6.32;100.00;102399.44;5082844;28;20024;-52
2023/01/28 11:37:21;;;;;;;6.03;4.10;;;;;;;6.31;100.00;102395.97;5083243;28;20530;-52
2023/01/28 11:39:47;;;;;;;8.70;4.85;;;;;;;6.34;100.00;102401.00;5083566;28;20070;-53
2023/01/28 11:42:21;;;;;;;5.07;3.38;;;;;;;6.43;100.00;102398.63;5083176;28;20063;-55
2023/01/28 11:44:47;;;;;;;9.48;4.88;;;;;;;6.37;100.00;102393.81;5083068;28;20123;-52
2023/01/28 11:47:57;;;;;;;6.20;3.13;;;;;;;6.40;100.00;102399.72;5086796;28;20124;-51
2023/01/28 11:50:47;;;;;;;4.28;3.20;;;;;;;6.37;100.00;102393.81;5082977;28;20536;-56
2023/01/28 11:53:21;;;;;;;7.25;4.10;;;;;;;6.46;100.00;102393.97;5081819;28;20063;-53
2023/01/28 11:56:26;;;;;;;5.43;3.50;;;;;;;6.55;100.00;102395.06;5082157;28;20051;-50
2023/01/28 11:59:34;;;;;;;4.28;2.78;;;;;;;6.59;100.00;102388.59;5080701;28;20036;-53
2023/01/28 12:02:41;;;;;;;4.82;2.95;;;;;;;6.66;100.00;102384.53;5083318;28;20035;-54
2023/01/28 12:05:31;;;;;;;6.15;2.67;;;;;;;6.73;100.00;102388.34;5082603;28;20039;-54